Aktualne dane pomiarowe

Uwaga, wersja testowa! Automatyczne pobieranie danych za pomocą narzędzi lub skryptów to umożliwiających jest zabronione.

Dane meteo z obszaru Polski uzyskane na podstawie depesz SYNOP pobieranych co godzinę z NWS. Najedź myszką na symbol przedstawiony w tabeli, aby uzyskać informacje co do jego znaczenia. Prosimy pamiętać, że to testowa wersja strony, która jeszcze nie jest ukończona. Stworzono również jest krótki FAQ dotyczący korzystania z tej podstrony Anomalie temperatury w chwili obecnej odniesione są do okresu referencyjnego 1951-2016. Okres ten będzie później zmieniony na 1981-2010. Kliknij ikonę aby pobrać plik CSV. Kliknij ikonę aby wygenerować mapę synoptyczną dla danego terminu.

Wybierz Datę:    

        

Sulejów (12469)

Dane terminowe dla wybranej stacji. Kliknij datę, aby otrzymać dane z tego terminu dla wszystkich stacji.

TemperaturaZachmurzenieWiatrCiśnienieOpadyPogoda
 Data t td wb tx tn tg rh  Nt Nl Cl Cm Ch ws wd g1 g2 wx mslp ppp ch 24h 12h t ww ww w1 w2  
2019-06-19 23:00:00 18.1 16.3 16.8--- 8912.0wx-wxwx1wx---1011.0 988.8 -0.5---------
2019-06-19 22:00:00 19.3 16.6 17.4--- 8420.0wx-wxwx1wx---1011.0 988.9 -0.5---------
2019-06-19 21:00:00 19.7 16.8 17.7--- 8325.0wxwxwxwxwx3wx--31011.1 989.0 -0.1---wx---
2019-06-19 20:00:00 21.0 16.7 18.0--- 7630.0wxwxwxwxwx2wx--21011.3 989.3 0.5---wx-w1w2--
2019-06-19 19:00:00 21.7 17.2 18.6--- 7630.0wxwxwxwxwx2wx--21011.3 989.4 0.4---wx---
2019-06-19 18:00:00 23.5 17.6 19.5 29.2 21.6- 7030.0wxwxwxwxwx2wx-1021010.9 989.1 0.3- 0.012wx-w1--
2019-06-19 17:00:00 24.6 16.2 19.1--- 6035.0wxwxwxwxwx3wx--31010.5 988.8 -0.8---------
2019-06-19 16:00:00 26.8 17.7 20.7--- 5835.0wxwxwxwxwx4wx--41010.5 989.0 -0.9---------
2019-06-19 15:00:00 27.7 15.9 20.1--- 4930.0wxwxwxwxwx3wx---1010.3 988.8 -1.4---wx---
2019-06-19 14:00:00 27.3 16.8 20.4--- 5330.0wxwxwxwxwx3wx-1031011.1 989.6 -1.2---wx-w1w2--
2019-06-19 13:00:00 28.4 16.2 20.5--- 4830.0wxwxwxwxwx3wx--31011.3 989.9 -1.5---wx---
2019-06-19 12:00:00 28.6 15.4 20.2--- 4535.0wxwxwxwxwx3wx-731011.6 990.2 -1.6- 0.06------
2019-06-19 11:00:00 28.0 15.9 20.2--- 4830.0wxwxwxwxwx2wx--21012.3 990.8 -1.3---------
2019-06-19 10:00:00 27.0 17.4 20.6--- 5630.0wxwxwxwxwx2wx--21013.0 991.4 -1.0---------
2019-06-19 09:00:00 25.5 18.1 20.5--- 6430.0wxwxwxwxwx2wx-721013.5 991.8 -1.2---------
2019-06-19 08:00:00 24.7 17.8 20.0--- 6630.0wxwxwxwxwx3wx---1013.9 992.1 -0.7---------
2019-06-19 07:00:00 23.6 17.5 19.5--- 6935.0wxwxwxwxwx2wx--21014.2 992.4 -0.6---------
2019-06-19 06:00:00 21.7 17.0 18.5 23.1 16.9 15 7530.0wxwxwx2wx--21015.0 993.0 -0.1- 0.012----- 11.0
2019-06-19 05:00:00 20.7 16.8 18.0--- 7830.0wxwxwxwxwx2wx--21014.9 992.8 -0.6---------
2019-06-19 04:00:00 17.7 16.1 16.5--- 9020.0wx-wxwx1wx--11015.3 993.0 -0.7---------
2019-06-19 03:00:00 17.4 15.3 15.9--- 8825.0wxwxwxwxwx1wx--11015.4 993.1 -1.0---------
2019-06-19 02:00:00 17.9 15.1 16.0--- 8425.0wxwxwxwxwx1wx--11015.7 993.4 -1.1---------
2019-06-19 01:00:00 18.7 15.5 16.5--- 8225.0wxwxwxwx1wx--11015.9 993.7 -1.1---------
2019-06-19 00:00:00 18.1 16.0 16.6--- 8825.0wxwxwxwx1wx--11016.4 994.1 -1.1- 0.06------
2019-06-18 23:00:00 18.5 16.4 17.0--- 8825.0wxwxwxwx1wx--11016.8 994.5 -0.7---------
2019-06-18 22:00:00 19.0 16.1 17.0--- 8330.0wxwxwxwx1wx---1017.0 994.8 -0.2---------
2019-06-18 21:00:00 19.8 16.2 17.3--- 8030.0wxwxwxwx1wx--11017.4 995.2 0.4---------
2019-06-18 20:00:00 20.1 16.0 17.3--- 7730.0wxwxwxwx1wx--11017.4 995.2 0.1---------
2019-06-18 19:00:00 21.6 14.6 17.0--- 6440.0wxwxwxwx1wx--11017.1 995.0 -0.3---------
2019-06-18 18:00:00 23.1 14.8 17.7 25.8 18.8- 6040.0wxwxwxwxwx2wx-1021016.7 994.8 -0.8- 0.012------
2019-06-18 17:00:00 23.9 14.5 17.9--- 5640.0wxwxwxwx2wx---1017.0 995.1 -1.1---------
2019-06-18 16:00:00 24.6 13.4 17.6--- 5040.0wxwxwxwxwx3wx--31017.1 995.3 -1.4---------
2019-06-18 15:00:00 24.9 13.7 17.9--- 5030.0wxwxwxwx3wx---1017.4 995.6 -1.6---------
2019-06-18 14:00:00 25.2 13.6 18.0--- 4940.0wxwxwxwx3wx--31018.0 996.2 -1.4---------
2019-06-18 13:00:00 25.7 14.4 18.6--- 5030.0wxwxwxwx2wx--21018.5 996.7 -1.2---------
2019-06-18 12:00:00 24.6 13.4 17.6--- 5035.0wxwxwxwx3wx-931019.1 997.2 -1.1- 0.06------
2019-06-18 11:00:00 24.5 13.6 17.7--- 5140.0wxwxwxwx4wx9941019.5 997.6 -1.0---------
2019-06-18 10:00:00 24.0 13.4 17.4--- 5240.0wxwxwxwx4wx--41019.8 997.9 -1.0---------
2019-06-18 09:00:00 23.3 14.2 17.5--- 5740.0wxwxwxwx3wx--31020.3 998.3 -0.8---------
2019-06-18 08:00:00 22.1 14.9 17.4--- 6435.0wxwxwxwx4wx--41020.7 998.6 -0.3---------
2019-06-18 07:00:00 20.7 14.7 16.7--- 6930.0wxwxwxwx2wx---1021.1 998.9 0.1---------
2019-06-18 06:00:00 18.8 14.6 16.0 21.1 11.3 10 7725.0wx-wx2wx--21021.5 999.1 0.3- 0.012----- 14.0
2019-06-18 05:00:00 16.6 13.8 14.7--- 8430.0wx-wxwx2wx--21021.4 998.9 0.2---------
2019-06-18 04:00:00 13.8 12.8 13.1--- 9420.0wx-wx0---01021.5 998.8 0.1---------
2019-06-18 03:00:00 11.7 11.0 11.2--- 9520.0wx-wx0---01021.7 998.8 -0.1---------
2019-06-18 02:00:00 11.8 10.8 11.1--- 9415.0wx-wx1wx---1021.6 998.7 -0.4---------
2019-06-18 01:00:00 11.7 10.7 11.0--- 9415.0wx-wx0----1021.6 998.7 -0.3---------
2019-06-18 00:00:00 12.9 11.7 12.0--- 9220.0wx-wx0---01021.7 998.9 -0.1- 0.06------
1.4 ms

 

Print Friendly, PDF & Email